»·PEaware :: N301PW 8S1-ID32

N301PW :: 8S1-ID32

FLIGHT INFORMATION

Flight Status: Arrived
Operator: Privately registered:
United States
More flights under this callsign
Pilot: Stacy K. (11621)
Aircraft: DEHAVILLAND DASH 8 200
(DH8B)
More flights by this aircraft type
Origin: 8S1 Polson
United States
Destination: ID32 Tuka
United States
More flights between these airports :: More routes between these airports
Route: MLP
File this flight plan on PilotEdge
Remarks:
Altitude:
(Current/Filed)
12,500ft
Speed:
(Current/Filed)
230kts
Departed: 17-Apr-18 01:18 PM
Arrived: 17-Apr-18 01:55 PM
Distance/Time
Traveled:
82nm/0:37
Distance/Time
To Go:
Arrived

Flight Plot

Page will automatically refresh every two minutes.

Flight plan parsing failed; only flown route is shown


Map Options




Map Legend


Flown Route
Filed Route
Departure Airport
Arrival Airport
Navaid (VOR, NDB)
Fix

Horizontal Profiles

Position Reports

Time Latitude Longitude Heading Altitude Ground
Speed
17-Apr-18 13:05 47.693981 -114.184269 20 2931ft 0kts
17-Apr-18 13:06 47.693981 -114.184269 20 2931ft 0kts
17-Apr-18 13:07 47.693981 -114.184269 20 2931ft 0kts
17-Apr-18 13:08 47.694020 -114.184253 10 2931ft 0kts
17-Apr-18 13:09 47.694020 -114.184253 10 2931ft 0kts
17-Apr-18 13:10 47.694785 -114.184758 34 2931ft 0kts
17-Apr-18 13:11 47.694785 -114.184758 34 2931ft 0kts
17-Apr-18 13:12 47.694785 -114.184758 34 2931ft 0kts
17-Apr-18 13:13 47.694785 -114.184758 34 2931ft 0kts
17-Apr-18 13:16 47.700671 -114.182254 272 2931ft 0kts
17-Apr-18 13:17 47.691877 -114.187872 208 2931ft 118kts
17-Apr-18 13:18 47.658422 -114.211555 242 4239ft 132kts
17-Apr-18 13:19 47.660206 -114.258169 274 5864ft 134kts
17-Apr-18 13:20 47.665262 -114.314918 273 7690ft 142kts
17-Apr-18 13:21 47.664610 -114.372988 259 9504ft 138kts
17-Apr-18 13:22 47.656865 -114.428654 259 11256ft 135kts
17-Apr-18 13:23 47.648218 -114.484055 261 12553ft 160kts
17-Apr-18 13:24 47.635931 -114.562256 260 12514ft 217kts
17-Apr-18 13:25 47.621230 -114.653694 259 12510ft 233kts
17-Apr-18 13:26 47.605889 -114.748539 259 12510ft 238kts
17-Apr-18 13:27 47.590101 -114.845958 259 12509ft 246kts
17-Apr-18 13:28 47.574005 -114.944580 259 12504ft 245kts
17-Apr-18 13:29 47.557931 -115.042543 259 12507ft 244kts
17-Apr-18 13:30 47.541811 -115.140237 259 12508ft 244kts
17-Apr-18 13:31 47.525604 -115.237902 259 12508ft 244kts
17-Apr-18 13:32 47.509280 -115.335731 258 12500ft 245kts
17-Apr-18 13:33 47.492808 -115.433857 258 12500ft 245kts
17-Apr-18 13:34 47.476239 -115.532030 258 12500ft 245kts
17-Apr-18 13:35 47.462452 -115.630128 278 12495ft 241kts
17-Apr-18 13:36 47.512657 -115.692948 330 12501ft 251kts
17-Apr-18 13:37 47.576054 -115.736660 329 12502ft 251kts
17-Apr-18 13:38 47.638754 -115.782530 328 12503ft 251kts
17-Apr-18 13:39 47.702710 -115.830489 328 11226ft 265kts
17-Apr-18 13:40 47.767784 -115.885450 317 9520ft 271kts
17-Apr-18 13:41 47.824312 -115.954166 315 8028ft 248kts
17-Apr-18 13:42 47.883229 -115.997784 324 6993ft 212kts
17-Apr-18 13:43 47.931773 -116.029653 8 7034ft 205kts
17-Apr-18 13:44 47.988268 -116.014176 2 6240ft 228kts
17-Apr-18 13:45 48.054676 -116.004632 335 5007ft 234kts
17-Apr-18 13:46 48.073717 -116.079863 292 4227ft 203kts
17-Apr-18 13:47 48.101078 -116.153558 312 3536ft 160kts
17-Apr-18 13:48 48.128005 -116.165055 140 3160ft 146kts
17-Apr-18 13:49 48.098890 -116.137268 192 2278ft 205kts
17-Apr-18 13:50 48.071635 -116.153995 260 3385ft 128kts
17-Apr-18 13:51 48.084714 -116.198251 334 4912ft 143kts
17-Apr-18 13:52 48.096231 -116.140933 87 2991ft 155kts
17-Apr-18 13:53 48.090987 -116.125630 288 2948ft 160kts
17-Apr-18 13:54 48.111321 -116.138185 140 2134ft 0kts
17-Apr-18 13:55 48.111317 -116.138195 140 2133ft 0kts
17-Apr-18 13:56 48.111313 -116.138204 140 2133ft 0kts
17-Apr-18 13:57 48.111310 -116.138211 140 2133ft 0kts
17-Apr-18 13:58 48.111307 -116.138217 140 2133ft 0kts
17-Apr-18 13:59 48.111303 -116.138226 140 2132ft 0kts
17-Apr-18 14:00 48.111299 -116.138236 140 2132ft 0kts
17-Apr-18 14:01 48.111295 -116.138245 140 2132ft 0kts
17-Apr-18 14:02 48.111291 -116.138255 140 2131ft 0kts
17-Apr-18 14:03 48.111287 -116.138264 140 2131ft 0kts
17-Apr-18 14:04 48.111282 -116.138274 140 2130ft 0kts

Navigation Log

Ident Type
Flight plan parsing failed, navigation log unavailable